Time;durP1;ratioP1;P1;durP2;ratioP2;P2;SDS_P1;SDS_P2;PMS_P1;PMS_P2;Temp;Humidity;BMP_temperature;BMP_pressure;BME280_temperature;BME280_humidity;BME280_pressure;Samples;Min_cycle;Max_cycle;Signal;HPM_P1;HPM_P2
2023/01/08 00:00:55;;;;;;;8.53;7.73;;;7.00;40.40;;;;;;10488450;28;20263;-74
2023/01/08 00:06:01;;;;;;;7.97;7.17;;;7.00;40.10;;;;;;10485250;28;20235;-74
2023/01/08 00:11:06;;;;;;;7.93;7.23;;;7.00;40.10;;;;;;10487922;28;20224;-74
2023/01/08 00:16:11;;;;;;;6.90;6.30;;;6.90;40.10;;;;;;10488230;28;20275;-74
2023/01/08 00:21:15;;;;;;;7.37;6.67;;;6.90;39.90;;;;;;10487983;28;20711;-74
2023/01/08 00:26:19;;;;;;;7.20;6.50;;;6.70;39.90;;;;;;10488239;28;20244;-74
2023/01/08 00:31:22;;;;;;;7.93;7.13;;;6.70;40.20;;;;;;10484534;28;20254;-74
2023/01/08 00:36:26;;;;;;;8.03;6.87;;;6.60;40.20;;;;;;10454718;28;20587;-74
2023/01/08 00:41:30;;;;;;;7.07;6.47;;;6.50;40.20;;;;;;10454349;28;20221;-74
2023/01/08 00:46:33;;;;;;;7.40;6.70;;;6.50;40.50;;;;;;10454158;28;20244;-74
2023/01/08 00:51:36;;;;;;;8.07;6.73;;;6.50;40.40;;;;;;10454490;28;20229;-74
2023/01/08 00:56:41;;;;;;;7.60;6.90;;;6.50;40.40;;;;;;10453816;28;20233;-74
2023/01/08 01:01:44;;;;;;;6.77;6.17;;;6.50;40.40;;;;;;10453597;28;20232;-74
2023/01/08 01:06:47;;;;;;;7.07;6.47;;;6.50;40.10;;;;;;10453432;28;20286;-74
2023/01/08 01:11:52;;;;;;;7.47;6.77;;;6.50;40.10;;;;;;10467977;22;20235;-68
2023/01/08 01:16:55;;;;;;;7.10;6.50;;;6.40;40.20;;;;;;10449143;28;20275;-68
2023/01/08 01:21:59;;;;;;;7.57;6.87;;;6.40;40.10;;;;;;10459638;28;20232;-68
2023/01/08 01:27:03;;;;;;;7.33;6.63;;;6.30;40.20;;;;;;10456373;28;20233;-71
2023/01/08 01:32:07;;;;;;;7.13;6.53;;;6.20;40.50;;;;;;10447785;28;20235;-71
2023/01/08 01:37:12;;;;;;;6.27;5.67;;;6.20;40.40;;;;;;10450292;28;21029;-71
2023/01/08 01:47:38;;;;;;;6.60;6.00;;;6.20;40.70;;;;;;10454898;28;20657;-68
2023/01/08 01:52:45;;;;;;;7.13;6.43;;;6.20;40.70;;;;;;10451431;28;20228;-69
2023/01/08 01:57:55;;;;;;;6.77;6.17;;;6.30;40.60;;;;;;10452005;28;20700;-69
2023/01/08 02:02:58;;;;;;;6.43;5.83;;;6.20;40.60;;;;;;10455002;28;20386;-69
2023/01/08 02:08:07;;;;;;;6.70;6.00;;;6.30;40.50;;;;;;10448814;28;20231;-70
2023/01/08 02:13:16;;;;;;;6.60;6.00;;;6.30;40.70;;;;;;10453134;28;20237;-70
2023/01/08 02:18:21;;;;;;;6.43;5.83;;;6.30;40.60;;;;;;10448529;28;20251;-69
2023/01/08 02:23:30;;;;;;;7.27;6.57;;;6.30;40.50;;;;;;10450938;28;20228;-69
2023/01/08 02:28:40;;;;;;;5.90;5.40;;;6.30;40.50;;;;;;10449744;28;20648;-69
2023/01/08 02:33:45;;;;;;;6.93;6.33;;;6.20;41.00;;;;;;10447095;28;20307;-69
2023/01/08 02:38:57;;;;;;;5.60;5.10;;;6.20;40.20;;;;;;10458264;28;20282;-69
2023/01/08 02:44:04;;;;;;;6.60;5.93;;;6.20;40.00;;;;;;10453367;28;20243;-69
2023/01/08 02:49:12;;;;;;;6.37;5.73;;;6.00;40.20;;;;;;10446822;28;20225;-69
2023/01/08 02:54:21;;;;;;;6.03;5.43;;;5.90;40.50;;;;;;10446327;28;20607;-69
2023/01/08 02:59:27;;;;;;;5.97;5.47;;;5.90;40.40;;;;;;10445051;28;20236;-69
2023/01/08 03:04:34;;;;;;;4.83;4.43;;;5.90;40.50;;;;;;10452098;28;20233;-69
2023/01/08 03:09:38;;;;;;;5.93;5.43;;;5.90;40.40;;;;;;10449819;28;20221;-69
2023/01/08 03:14:47;;;;;;;6.70;6.00;;;5.90;40.50;;;;;;10452634;28;20229;-69
2023/01/08 03:19:54;;;;;;;6.23;5.63;;;5.90;40.50;;;;;;10452233;28;20224;-69
2023/01/08 03:24:59;;;;;;;5.37;4.97;;;5.90;40.30;;;;;;10451889;28;20768;-69
2023/01/08 03:30:06;;;;;;;6.20;5.60;;;5.80;40.00;;;;;;10446905;28;20269;-69
2023/01/08 03:35:11;;;;;;;5.67;5.17;;;5.70;40.30;;;;;;10444594;28;20455;-69
2023/01/08 03:40:20;;;;;;;5.40;4.90;;;5.60;40.30;;;;;;10451860;28;20705;-69
2023/01/08 03:45:26;;;;;;;4.90;4.50;;;5.50;40.40;;;;;;10447826;28;20236;-69
2023/01/08 03:50:32;;;;;;;5.60;5.10;;;5.50;40.80;;;;;;10446575;28;20240;-69
2023/01/08 03:55:35;;;;;;;5.70;4.77;;;5.50;40.70;;;;;;10453104;28;20606;-69
2023/01/08 04:00:40;;;;;;;5.23;4.77;;;5.40;40.40;;;;;;10444251;28;20232;-69
2023/01/08 04:05:43;;;;;;;4.90;4.40;;;5.40;40.90;;;;;;10443198;28;20306;-68
2023/01/08 04:10:46;;;;;;;4.70;4.27;;;5.40;40.90;;;;;;10451962;28;20225;-69
2023/01/08 04:15:51;;;;;;;5.43;4.83;;;5.40;40.90;;;;;;10444120;28;20247;-68
2023/01/08 04:20:54;;;;;;;5.20;4.73;;;5.40;41.00;;;;;;10448845;28;20251;-69
2023/01/08 04:25:57;;;;;;;4.97;4.53;;;5.40;40.80;;;;;;10449461;28;20247;-68
2023/01/08 04:31:05;;;;;;;5.07;4.63;;;5.40;40.70;;;;;;10446907;28;20236;-68
2023/01/08 04:36:09;;;;;;;5.50;5.00;;;5.30;41.20;;;;;;10446554;28;20237;-69
2023/01/08 04:41:13;;;;;;;4.70;4.30;;;5.30;40.90;;;;;;10442388;28;20716;-69
2023/01/08 04:46:17;;;;;;;5.03;4.53;;;5.40;41.00;;;;;;10450071;28;20759;-68
2023/01/08 04:51:21;;;;;;;5.00;4.50;;;5.40;41.10;;;;;;10439522;28;20241;-69
2023/01/08 04:56:24;;;;;;;4.73;4.30;;;5.40;41.10;;;;;;10447757;28;20241;-69
2023/01/08 05:01:29;;;;;;;4.37;3.97;;;5.40;41.00;;;;;;10451069;28;20277;-69
2023/01/08 05:06:33;;;;;;;5.80;5.30;;;5.40;41.10;;;;;;10449125;28;20259;-69
2023/01/08 05:11:36;;;;;;;5.50;5.00;;;5.40;41.00;;;;;;10448835;28;20229;-69
2023/01/08 05:16:41;;;;;;;5.93;5.30;;;5.30;40.80;;;;;;10449899;28;20229;-69
2023/01/08 05:21:44;;;;;;;5.40;4.90;;;5.30;41.00;;;;;;10452867;28;20224;-69
2023/01/08 05:26:47;;;;;;;5.33;4.67;;;5.20;41.10;;;;;;10452665;28;20618;-69
2023/01/08 05:31:51;;;;;;;4.67;4.27;;;5.20;41.10;;;;;;10454174;28;20233;-69
2023/01/08 05:36:54;;;;;;;6.00;5.13;;;5.10;41.20;;;;;;10451546;28;20221;-69
2023/01/08 05:41:57;;;;;;;5.50;5.00;;;5.10;41.30;;;;;;10453535;28;20238;-69
2023/01/08 05:47:02;;;;;;;5.33;4.40;;;5.00;41.30;;;;;;10455878;28;20244;-69
2023/01/08 05:52:05;;;;;;;4.73;4.27;;;5.00;41.60;;;;;;10450082;28;20236;-69
2023/01/08 05:57:08;;;;;;;6.73;6.13;;;5.00;41.60;;;;;;10449958;28;20286;-70
2023/01/08 06:02:13;;;;;;;5.50;4.93;;;5.10;41.50;;;;;;10449138;28;20791;-69
2023/01/08 06:07:16;;;;;;;5.30;4.80;;;5.10;41.50;;;;;;10448707;28;20601;-69
2023/01/08 06:12:19;;;;;;;5.30;4.80;;;5.10;41.50;;;;;;10454495;28;20585;-69
2023/01/08 06:17:24;;;;;;;4.80;4.40;;;5.10;41.50;;;;;;10446070;28;20237;-69
2023/01/08 06:22:27;;;;;;;5.33;4.70;;;5.10;41.90;;;;;;10450413;28;20229;-69
2023/01/08 06:27:30;;;;;;;5.20;4.70;;;5.10;41.70;;;;;;10447807;28;20229;-69
2023/01/08 06:32:35;;;;;;;5.40;4.90;;;5.10;41.70;;;;;;10450959;28;20240;-69
2023/01/08 06:37:38;;;;;;;5.07;4.57;;;5.10;42.10;;;;;;10447807;28;20681;-69
2023/01/08 06:42:42;;;;;;;4.40;4.00;;;5.10;42.00;;;;;;10445905;28;20228;-68
2023/01/08 06:47:47;;;;;;;4.50;4.10;;;5.10;42.00;;;;;;10447419;28;20229;-69
2023/01/08 06:52:53;;;;;;;6.07;4.30;;;5.20;42.20;;;;;;10450622;28;20236;-69
2023/01/08 06:57:58;;;;;;;4.40;4.00;;;5.30;42.40;;;;;;10443526;28;20228;-69
2023/01/08 07:03:02;;;;;;;4.57;4.17;;;5.30;42.10;;;;;;10446747;28;20221;-69
2023/01/08 07:08:06;;;;;;;4.33;3.93;;;5.40;42.20;;;;;;10445474;28;20235;-69
2023/01/08 07:13:11;;;;;;;5.00;4.40;;;5.40;42.00;;;;;;10446281;28;20279;-69
2023/01/08 07:18:16;;;;;;;4.73;4.33;;;5.50;42.10;;;;;;10454184;28;20244;-69
2023/01/08 07:23:19;;;;;;;8.57;7.50;;;5.50;42.20;;;;;;10444451;28;20239;-69
2023/01/08 07:28:22;;;;;;;5.80;5.20;;;5.50;42.10;;;;;;10451364;28;20240;-69
2023/01/08 07:33:27;;;;;;;5.40;4.90;;;5.50;42.20;;;;;;10442287;28;20685;-69
2023/01/08 07:38:30;;;;;;;4.60;4.20;;;5.50;42.30;;;;;;10449336;28;20255;-69
2023/01/08 07:43:34;;;;;;;4.43;4.03;;;5.50;42.20;;;;;;10450135;28;20233;-69
2023/01/08 07:48:38;;;;;;;3.77;3.47;;;5.60;42.40;;;;;;10448260;28;20225;-68
2023/01/08 07:53:41;;;;;;;4.53;4.13;;;5.60;42.60;;;;;;10446628;28;20235;-69
2023/01/08 07:58:45;;;;;;;4.50;4.10;;;5.70;42.60;;;;;;10444620;28;20729;-69
2023/01/08 08:03:49;;;;;;;5.03;4.53;;;5.70;42.50;;;;;;10448723;28;20598;-69
2023/01/08 08:08:53;;;;;;;4.23;3.93;;;5.80;42.80;;;;;;10441622;28;20242;-69
2023/01/08 08:13:56;;;;;;;4.20;3.90;;;5.80;42.40;;;;;;10450310;28;20957;-68
2023/01/08 08:19:00;;;;;;;4.93;3.90;;;5.80;42.40;;;;;;10429262;28;20228;-69
2023/01/08 08:24:19;;;;;;;6.67;5.03;;;5.80;42.60;;;;;;10428448;28;20267;-68
2023/01/08 08:55:14;;;;;;;4.23;3.83;;;5.90;43.80;;;;;;10188834;29;20238;-91
2023/01/08 09:00:19;;;;;;;4.37;3.83;;;5.90;43.70;;;;;;10373166;28;20268;-89
2023/01/08 09:05:22;;;;;;;4.67;4.27;;;6.00;43.40;;;;;;10452990;28;20233;-89
2023/01/08 09:10:26;;;;;;;4.60;4.20;;;6.10;43.20;;;;;;10401124;28;20316;-89
2023/01/08 09:15:32;;;;;;;4.67;4.27;;;6.20;43.40;;;;;;10437099;28;20233;-88
2023/01/08 09:20:35;;;;;;;5.37;4.87;;;6.20;43.60;;;;;;10453595;28;20228;-91
2023/01/08 09:25:38;;;;;;;5.23;4.83;;;6.30;43.30;;;;;;10442221;28;20224;-91
2023/01/08 09:30:54;;;;;;;6.30;5.70;;;6.30;43.40;;;;;;10442397;28;20259;-91
2023/01/08 09:36:07;;;;;;;6.20;5.60;;;6.40;43.70;;;;;;10448721;28;20336;-91
2023/01/08 09:41:21;;;;;;;5.30;4.80;;;6.50;43.50;;;;;;10457290;28;20587;-92
2023/01/08 09:46:31;;;;;;;4.77;4.37;;;6.50;43.90;;;;;;10459983;28;20231;-93
2023/01/08 09:51:36;;;;;;;5.07;4.20;;;6.60;44.00;;;;;;10459349;28;20781;-92
2023/01/08 09:56:39;;;;;;;5.70;5.10;;;6.70;43.60;;;;;;10457798;28;20236;-92
2023/01/08 10:01:47;;;;;;;5.20;4.70;;;6.70;43.60;;;;;;10458904;28;20296;-90
2023/01/08 10:07:00;;;;;;;5.23;4.73;;;6.80;44.10;;;;;;10428800;28;20263;-89
2023/01/08 10:12:13;;;;;;;5.07;4.57;;;6.90;44.30;;;;;;10462865;28;20319;-92
2023/01/08 10:17:40;;;;;;;4.93;4.53;;;7.00;44.40;;;;;;10464118;28;20263;-94
2023/01/08 10:22:52;;;;;;;6.00;5.40;;;7.10;44.50;;;;;;10464493;28;20279;-93
2023/01/08 10:28:03;;;;;;;4.83;4.43;;;7.20;44.10;;;;;;10416133;28;20229;-92
2023/01/08 10:33:23;;;;;;;5.00;4.50;;;7.30;44.60;;;;;;10403626;28;20241;-93
2023/01/08 10:38:31;;;;;;;4.93;4.50;;;7.40;44.70;;;;;;10410737;28;20863;-91
2023/01/08 10:43:52;;;;;;;5.43;4.60;;;7.50;44.30;;;;;;10450648;28;20229;-92
2023/01/08 10:49:00;;;;;;;5.40;5.00;;;7.60;44.10;;;;;;10465544;28;20232;-91
2023/01/08 10:54:14;;;;;;;6.00;5.50;;;7.70;44.20;;;;;;10476358;28;20284;-93
2023/01/08 10:59:19;;;;;;;7.40;6.70;;;7.80;44.50;;;;;;10465051;28;20325;-93
2023/01/08 11:04:31;;;;;;;7.00;6.40;;;7.90;44.10;;;;;;10478337;28;20261;-93
2023/01/08 11:09:48;;;;;;;6.40;5.80;;;8.00;44.50;;;;;;10479726;28;20232;-93
2023/01/08 11:15:32;;;;;;;6.63;5.73;;;8.00;44.10;;;;;;10456325;28;20232;-93
2023/01/08 11:25:59;;;;;;;5.53;5.10;;;8.10;44.60;;;;;;10395703;28;20228;-67
2023/01/08 11:31:11;;;;;;;6.13;5.53;;;8.20;44.50;;;;;;10428999;28;20225;-67
2023/01/08 11:36:23;;;;;;;6.00;5.40;;;8.30;44.70;;;;;;10431192;28;20236;-67
2023/01/08 11:41:46;;;;;;;6.10;5.50;;;8.30;44.60;;;;;;10436736;28;20241;-67
2023/01/08 11:46:57;;;;;;;5.77;5.27;;;8.40;44.80;;;;;;10433022;28;20237;-67
2023/01/08 11:52:29;;;;;;;5.40;4.90;;;8.40;44.80;;;;;;10435762;28;20221;-67
2023/01/08 11:57:43;;;;;;;5.37;4.90;;;8.50;45.60;;;;;;10433216;28;20728;-68
2023/01/08 12:02:54;;;;;;;7.17;5.30;;;8.70;45.50;;;;;;10430722;28;20229;-68
2023/01/08 12:08:03;;;;;;;6.03;5.53;;;8.60;45.40;;;;;;10429589;28;20233;-67
2023/01/08 12:13:19;;;;;;;8.20;7.43;;;8.80;45.20;;;;;;10432326;28;20974;-67
2023/01/08 12:18:39;;;;;;;7.40;6.70;;;8.80;45.20;;;;;;10430224;28;20255;-67
2023/01/08 12:24:00;;;;;;;6.57;6.07;;;8.90;45.40;;;;;;10438708;28;20720;-67
2023/01/08 12:29:23;;;;;;;7.00;6.30;;;9.00;45.50;;;;;;10437807;28;20723;-68
2023/01/08 12:34:38;;;;;;;6.20;5.70;;;9.10;45.80;;;;;;10440100;28;20263;-66
2023/01/08 12:39:50;;;;;;;6.97;6.37;;;9.10;45.40;;;;;;10437580;28;20239;-66
2023/01/08 12:44:57;;;;;;;7.10;6.07;;;9.20;45.10;;;;;;10441563;28;20228;-66
2023/01/08 12:50:10;;;;;;;6.77;6.17;;;9.30;44.80;;;;;;10438854;28;20225;-67
2023/01/08 12:55:23;;;;;;;6.47;5.97;;;9.30;45.00;;;;;;10439983;28;20240;-67
2023/01/08 13:00:35;;;;;;;6.37;5.80;;;9.40;45.00;;;;;;10436403;28;20244;-66
2023/01/08 13:05:40;;;;;;;8.83;8.03;;;9.40;45.20;;;;;;10438477;28;20233;-67
2023/01/08 13:10:52;;;;;;;7.77;7.07;;;9.40;44.50;;;;;;10435625;28;20230;-67
2023/01/08 13:16:18;;;;;;;7.73;6.93;;;9.40;44.90;;;;;;10441184;28;20236;-67
2023/01/08 13:21:33;;;;;;;8.13;7.43;;;9.40;45.00;;;;;;10432277;28;20263;-67
2023/01/08 13:26:49;;;;;;;7.53;6.83;;;9.40;44.70;;;;;;10427066;28;20233;-66
2023/01/08 13:31:56;;;;;;;11.53;10.40;;;9.40;44.90;;;;;;10512583;22;20261;-79
2023/01/08 13:37:00;;;;;;;8.93;8.03;;;9.40;44.30;;;;;;10577615;27;20223;-78
2023/01/08 13:42:21;;;;;;;8.90;6.97;;;9.40;44.30;;;;;;10575893;27;20233;-79
2023/01/08 13:47:30;;;;;;;7.33;6.70;;;9.40;44.70;;;;;;10581301;27;20742;-78
2023/01/08 13:52:41;;;;;;;11.30;10.10;;;9.40;44.70;;;;;;10573586;27;20227;-79
2023/01/08 13:57:49;;;;;;;10.47;9.07;;;9.40;44.50;;;;;;10586487;27;20326;-79
2023/01/08 14:03:00;;;;;;;11.57;10.47;;;9.40;44.60;;;;;;10589360;27;20283;-79
2023/01/08 14:08:03;;;;;;;16.10;14.30;;;9.50;45.00;;;;;;10571529;27;20317;-79
2023/01/08 14:13:09;;;;;;;15.27;13.20;;;9.50;44.50;;;;;;10580095;27;20233;-80
2023/01/08 14:18:14;;;;;;;12.50;10.80;;;9.50;44.70;;;;;;10567875;27;20229;-79
2023/01/08 14:23:24;;;;;;;9.33;8.40;;;9.60;44.70;;;;;;10574996;27;20247;-80
2023/01/08 14:28:27;;;;;;;8.90;8.00;;;9.60;44.70;;;;;;10578800;27;20245;-80
2023/01/08 14:33:34;;;;;;;9.57;8.67;;;9.60;44.50;;;;;;10598649;27;20229;-80
2023/01/08 14:38:38;;;;;;;9.90;8.93;;;9.70;44.80;;;;;;10593533;27;20237;-80
2023/01/08 14:43:44;;;;;;;10.10;9.10;;;9.70;44.60;;;;;;10583514;28;20223;-79
2023/01/08 14:48:50;;;;;;;10.27;9.27;;;9.70;45.70;;;;;;10583271;28;20249;-79
2023/01/08 14:53:58;;;;;;;10.60;9.60;;;9.80;45.50;;;;;;10585485;28;20234;-79
2023/01/08 14:59:08;;;;;;;11.30;10.20;;;9.90;45.20;;;;;;10584926;28;20239;-79
2023/01/08 15:04:17;;;;;;;10.37;9.33;;;9.90;45.40;;;;;;10585491;28;20764;-78
2023/01/08 15:09:22;;;;;;;12.10;10.90;;;10.00;44.30;;;;;;10584759;28;20257;-79
2023/01/08 15:14:26;;;;;;;14.70;13.20;;;10.00;43.90;;;;;;10584362;28;20234;-78
2023/01/08 15:19:39;;;;;;;12.10;10.90;;;9.90;44.80;;;;;;10607143;27;20231;-78
2023/01/08 15:24:43;;;;;;;16.00;14.40;;;10.00;47.70;;;;;;10562500;28;20223;-79
2023/01/08 15:29:49;;;;;;;14.87;13.37;;;10.20;45.80;;;;;;10557595;28;20606;-77
2023/01/08 15:34:53;;;;;;;15.13;13.63;;;10.30;45.10;;;;;;10579408;27;20231;-77
2023/01/08 15:39:57;;;;;;;11.43;10.23;;;10.30;44.40;;;;;;10575449;28;20280;-78
2023/01/08 15:45:00;;;;;;;10.83;9.73;;;10.30;44.00;;;;;;10549857;28;20306;-77
2023/01/08 15:50:06;;;;;;;12.20;10.73;;;10.30;43.70;;;;;;10573901;28;20230;-77
2023/01/08 15:55:16;;;;;;;12.13;10.93;;;10.10;43.90;;;;;;10574635;28;20245;-78
2023/01/08 16:00:21;;;;;;;11.03;9.97;;;10.00;44.40;;;;;;10573979;28;20234;-78
2023/01/08 16:05:30;;;;;;;14.57;13.07;;;10.00;44.10;;;;;;10574277;28;20656;-77
2023/01/08 16:10:33;;;;;;;14.53;13.03;;;9.90;45.60;;;;;;10573411;28;20223;-78
2023/01/08 16:15:39;;;;;;;20.13;17.00;;;9.90;45.10;;;;;;10572966;28;20229;-78
2023/01/08 16:20:43;;;;;;;14.40;12.90;;;9.90;45.40;;;;;;10572696;28;20231;-78
2023/01/08 16:25:46;;;;;;;15.87;14.17;;;9.90;45.30;;;;;;10555532;28;20230;-78
2023/01/08 16:30:51;;;;;;;15.57;14.00;;;9.90;45.10;;;;;;10573312;28;20227;-78
2023/01/08 16:36:05;;;;;;;11.20;10.07;;;9.90;45.20;;;;;;10578220;28;20237;-79
2023/01/08 16:41:08;;;;;;;9.07;8.17;;;9.90;45.40;;;;;;10574788;28;20223;-79
2023/01/08 16:46:13;;;;;;;8.73;7.83;;;9.90;44.70;;;;;;10579323;28;20474;-79
2023/01/08 16:51:25;;;;;;;8.70;7.90;;;9.90;44.70;;;;;;10580152;28;20253;-78
2023/01/08 16:56:29;;;;;;;7.67;7.03;;;9.80;44.60;;;;;;10576032;28;20230;-78
2023/01/08 17:01:33;;;;;;;8.53;7.73;;;9.80;44.70;;;;;;10571401;28;20291;-78
2023/01/08 17:06:37;;;;;;;6.77;6.17;;;9.70;44.50;;;;;;10570896;28;20277;-78
2023/01/08 17:11:43;;;;;;;6.80;6.20;;;9.70;44.40;;;;;;10575271;28;20276;-79
2023/01/08 17:16:47;;;;;;;6.10;5.50;;;9.70;44.10;;;;;;10582529;27;20793;-78
2023/01/08 17:21:54;;;;;;;7.90;7.20;;;9.60;44.20;;;;;;10589082;27;20964;-78
2023/01/08 17:26:57;;;;;;;6.67;5.97;;;9.50;44.30;;;;;;10592411;27;20577;-80
2023/01/08 17:32:00;;;;;;;6.83;6.23;;;9.40;44.20;;;;;;10590153;27;20233;-79
2023/01/08 17:37:05;;;;;;;7.33;6.70;;;9.30;44.10;;;;;;10580603;27;20223;-79
2023/01/08 17:42:25;;;;;;;6.97;6.47;;;9.30;44.40;;;;;;10590930;27;20219;-79
2023/01/08 17:47:30;;;;;;;6.83;6.23;;;9.30;44.50;;;;;;10585448;27;20223;-79
2023/01/08 17:52:36;;;;;;;8.20;7.30;;;9.30;44.30;;;;;;10584136;27;20747;-79
2023/01/08 17:57:40;;;;;;;9.77;8.87;;;9.30;44.40;;;;;;10581030;28;20261;-78
2023/01/08 18:02:43;;;;;;;9.20;8.40;;;9.20;44.20;;;;;;10584747;27;20233;-78
2023/01/08 18:07:47;;;;;;;10.50;9.40;;;9.20;44.20;;;;;;10591764;27;20238;-78
2023/01/08 18:12:51;;;;;;;9.17;8.37;;;9.10;44.30;;;;;;10588696;27;20327;-78
2023/01/08 18:17:54;;;;;;;10.10;9.20;;;9.10;44.30;;;;;;10586482;27;20230;-78
2023/01/08 18:22:58;;;;;;;10.93;9.97;;;9.10;44.30;;;;;;10590911;27;20253;-78
2023/01/08 18:28:01;;;;;;;10.73;9.73;;;9.10;44.30;;;;;;10573630;27;20238;-77
2023/01/08 18:33:05;;;;;;;10.60;9.60;;;9.10;44.30;;;;;;10573932;27;20242;-78
2023/01/08 18:38:14;;;;;;;8.77;8.03;;;9.00;44.20;;;;;;10573586;27;20223;-77
2023/01/08 18:43:17;;;;;;;6.83;6.13;;;9.00;44.10;;;;;;10568468;27;20284;-78
2023/01/08 18:48:20;;;;;;;8.67;7.87;;;9.00;43.70;;;;;;10576882;27;20230;-78
2023/01/08 18:53:25;;;;;;;9.83;8.93;;;9.00;43.70;;;;;;10575327;27;20245;-78
2023/01/08 18:58:29;;;;;;;11.20;10.10;;;8.90;43.90;;;;;;10576190;27;20239;-78
2023/01/08 19:03:32;;;;;;;9.57;8.67;;;8.80;43.90;;;;;;10572518;27;20227;-78
2023/01/08 19:08:38;;;;;;;7.77;7.07;;;8.80;44.00;;;;;;10570465;27;20594;-79
2023/01/08 19:13:42;;;;;;;10.17;8.83;;;8.70;44.30;;;;;;10578594;27;20231;-79
2023/01/08 19:18:45;;;;;;;7.60;6.67;;;8.70;44.20;;;;;;10573899;27;20226;-79
2023/01/08 19:23:49;;;;;;;7.13;6.43;;;8.60;44.20;;;;;;10582680;27;20430;-79
2023/01/08 19:28:54;;;;;;;8.20;7.40;;;8.70;44.50;;;;;;10575503;27;20234;-79
2023/01/08 19:33:58;;;;;;;7.70;7.00;;;8.70;44.50;;;;;;10576204;27;20258;-79
2023/01/08 19:39:10;;;;;;;7.13;6.43;;;8.70;44.30;;;;;;10569470;27;20235;-79
2023/01/08 19:44:16;;;;;;;7.63;7.03;;;8.70;44.40;;;;;;10547363;27;20222;-80
2023/01/08 19:49:20;;;;;;;7.30;6.60;;;8.70;44.20;;;;;;10567794;27;20226;-78
2023/01/08 19:54:25;;;;;;;7.43;6.73;;;8.70;44.30;;;;;;10562196;27;20308;-78
2023/01/08 19:59:28;;;;;;;7.63;6.70;;;8.70;45.00;;;;;;10561076;28;20230;-80
2023/01/08 20:04:31;;;;;;;6.50;5.90;;;8.80;44.30;;;;;;10563024;27;20694;-78
2023/01/08 20:09:37;;;;;;;6.83;5.97;;;8.80;44.20;;;;;;10559243;28;20238;-78
2023/01/08 20:14:40;;;;;;;7.63;6.83;;;8.80;44.30;;;;;;10560742;28;20314;-80
2023/01/08 20:19:44;;;;;;;7.17;6.57;;;8.90;44.30;;;;;;10561593;28;20234;-80
2023/01/08 20:24:48;;;;;;;7.07;6.37;;;8.90;44.30;;;;;;10556173;28;20315;-78
2023/01/08 20:29:52;;;;;;;6.57;5.87;;;8.90;44.20;;;;;;10565365;28;20591;-78
2023/01/08 20:34:55;;;;;;;6.90;6.20;;;8.90;44.00;;;;;;10564318;28;20306;-78
2023/01/08 20:40:00;;;;;;;6.03;4.97;;;8.90;43.90;;;;;;10562366;28;20238;-78
2023/01/08 20:45:03;;;;;;;6.87;6.27;;;8.90;44.00;;;;;;10565509;27;20223;-78
2023/01/08 20:50:08;;;;;;;6.10;5.50;;;8.90;44.10;;;;;;10568399;28;20229;-78
2023/01/08 20:55:23;;;;;;;6.10;5.60;;;8.90;44.10;;;;;;10570612;27;20767;-78
2023/01/08 21:00:27;;;;;;;6.17;5.67;;;8.90;44.10;;;;;;10573664;27;20230;-78
2023/01/08 21:05:31;;;;;;;5.43;4.93;;;8.90;44.00;;;;;;10570544;27;20223;-78
2023/01/08 21:10:35;;;;;;;5.63;5.13;;;8.90;44.00;;;;;;10573445;27;20937;-77
2023/01/08 21:15:41;;;;;;;5.87;5.37;;;8.90;44.00;;;;;;10574886;27;20231;-78
2023/01/08 21:20:44;;;;;;;6.17;5.67;;;8.90;44.00;;;;;;10571861;27;20620;-78
2023/01/08 21:25:54;;;;;;;5.10;4.70;;;8.90;43.90;;;;;;10575672;27;20229;-78
2023/01/08 21:31:04;;;;;;;5.80;5.30;;;8.90;44.00;;;;;;10578237;27;20231;-78
2023/01/08 21:36:10;;;;;;;6.47;5.87;;;8.90;44.20;;;;;;10568211;27;20216;-78
2023/01/08 21:46:38;;;;;;;6.67;6.07;;;8.90;44.20;;;;;;10568621;27;20231;-78
2023/01/08 21:57:04;;;;;;;7.20;6.53;;;8.90;44.10;;;;;;10569648;27;20237;-77
2023/01/08 22:02:13;;;;;;;7.77;7.07;;;8.90;44.00;;;;;;10568060;27;20226;-78
2023/01/08 22:07:16;;;;;;;6.67;6.07;;;8.90;44.00;;;;;;10588166;22;20243;-71
2023/01/08 22:12:21;;;;;;;6.40;5.80;;;8.90;44.00;;;;;;10567213;27;20231;-71
2023/01/08 22:17:26;;;;;;;7.50;6.80;;;8.80;44.00;;;;;;10575224;28;20242;-71
2023/01/08 22:22:29;;;;;;;6.50;5.90;;;8.80;43.90;;;;;;10565885;28;20643;-71
2023/01/08 22:27:34;;;;;;;7.03;6.37;;;8.90;43.90;;;;;;10567280;27;20685;-72
2023/01/08 22:32:37;;;;;;;9.03;6.63;;;8.80;43.90;;;;;;10554832;28;20235;-72
2023/01/08 22:37:42;;;;;;;7.00;6.40;;;8.80;43.80;;;;;;10584067;27;20713;-71
2023/01/08 22:42:46;;;;;;;6.60;6.00;;;8.80;43.80;;;;;;10574690;28;20238;-71
2023/01/08 22:47:50;;;;;;;6.97;6.30;;;8.80;43.90;;;;;;10574659;28;20737;-71
2023/01/08 22:52:53;;;;;;;6.87;6.27;;;8.70;43.70;;;;;;10574137;28;20237;-71
2023/01/08 22:57:57;;;;;;;7.10;6.50;;;8.70;43.80;;;;;;10577756;27;20234;-72
2023/01/08 23:03:00;;;;;;;6.70;6.10;;;8.70;43.80;;;;;;10581482;27;20231;-71
2023/01/08 23:08:04;;;;;;;8.03;7.37;;;8.70;43.70;;;;;;10572370;28;20243;-71
2023/01/08 23:13:09;;;;;;;8.30;7.50;;;8.60;43.80;;;;;;10573432;28;20239;-71
2023/01/08 23:18:12;;;;;;;8.80;8.10;;;8.50;43.80;;;;;;10574293;28;20234;-71
2023/01/08 23:23:15;;;;;;;8.97;8.17;;;8.50;43.70;;;;;;10573785;28;20258;-72
2023/01/08 23:28:20;;;;;;;8.60;7.90;;;8.50;43.90;;;;;;10578076;27;20236;-71
2023/01/08 23:33:23;;;;;;;7.77;7.07;;;8.50;43.90;;;;;;10573596;28;20246;-71
2023/01/08 23:38:26;;;;;;;9.13;8.33;;;8.40;43.70;;;;;;10573258;28;20721;-71
2023/01/08 23:43:31;;;;;;;9.50;8.70;;;8.40;43.70;;;;;;10573392;28;20722;-71
2023/01/08 23:48:34;;;;;;;9.13;8.40;;;8.30;43.80;;;;;;10573271;28;20226;-71
2023/01/08 23:53:37;;;;;;;10.30;9.30;;;8.30;43.80;;;;;;10572862;27;20886;-71
2023/01/08 23:58:44;;;;;;;9.97;9.17;;;8.30;43.90;;;;;;10572437;28;20594;-71
